Time;durP1;ratioP1;P1;durP2;ratioP2;P2;SDS_P1;SDS_P2;PMS_P1;PMS_P2;Temp;Humidity;BMP_temperature;BMP_pressure;BME280_temperature;BME280_humidity;BME280_pressure;Samples;Min_cycle;Max_cycle;Signal;HPM_P1;HPM_P2
2023/01/01 00:00:59;;;;;;;;;;;27.00;99.90;;;;;;5057397;28;19946;-72
2023/01/01 00:03:25;;;;;;;;;;;27.00;99.90;;;;;;5058971;28;19982;-69
2023/01/01 00:05:52;;;;;;;;;;;27.10;99.90;;;;;;5057439;28;19917;-69
2023/01/01 00:08:19;;;;;;;;;;;27.00;99.90;;;;;;5059800;28;20349;-71
2023/01/01 00:10:45;;;;;;;;;;;26.90;99.90;;;;;;5060056;28;19923;-70
2023/01/01 00:13:13;;;;;;;;;;;26.90;99.90;;;;;;5057571;28;19962;-72
2023/01/01 00:15:40;;;;;;;;;;;26.90;99.90;;;;;;5057653;28;19908;-71
2023/01/01 00:18:06;;;;;;;;;;;27.20;99.90;;;;;;5056352;28;20076;-72
2023/01/01 00:20:33;;;;;;;;;;;27.50;99.90;;;;;;5057920;28;20365;-71
2023/01/01 00:22:59;;;;;;;;;;;27.70;99.80;;;;;;5056622;28;19992;-70
2023/01/01 00:25:26;;;;;;;;;;;27.80;98.40;;;;;;5056905;28;19956;-70
2023/01/01 00:27:53;;;;;;;;;;;27.70;98.80;;;;;;5058460;28;19909;-71
2023/01/01 00:30:19;;;;;;;;;;;27.60;99.20;;;;;;5058368;28;19912;-71
2023/01/01 00:32:46;;;;;;;;;;;27.60;99.20;;;;;;5058958;28;19970;-72
2023/01/01 00:35:13;;;;;;;;;;;27.70;99.10;;;;;;5056498;28;19921;-72
2023/01/01 00:37:39;;;;;;;;;;;27.80;99.20;;;;;;5056513;28;19919;-72
2023/01/01 00:40:10;;;;;;;;;;;27.70;99.00;;;;;;5055015;28;20133;-72
2023/01/01 00:42:39;;;;;;;;;;;27.80;98.60;;;;;;5058531;28;19919;-72
2023/01/01 00:45:06;;;;;;;;;;;28.00;98.20;;;;;;5056467;28;20377;-72
2023/01/01 00:47:33;;;;;;;;;;;28.10;98.40;;;;;;5058237;28;19914;-71
2023/01/01 00:49:59;;;;;;;;;;;28.20;98.40;;;;;;5056259;28;19931;-72
2023/01/01 00:52:26;;;;;;;;;;;28.30;98.10;;;;;;5057819;28;20280;-71
2023/01/01 00:54:53;;;;;;;;;;;28.40;98.60;;;;;;5058706;28;20299;-70
2023/01/01 00:57:19;;;;;;;;;;;28.70;97.60;;;;;;5056960;28;20404;-70
2023/01/01 00:59:46;;;;;;;;;;;28.80;97.90;;;;;;5057874;28;19999;-71
2023/01/01 01:02:12;;;;;;;;;;;28.80;96.30;;;;;;5056420;28;19909;-70
2023/01/01 01:04:39;;;;;;;;;;;28.70;96.70;;;;;;5057765;28;19916;-73
2023/01/01 01:07:06;;;;;;;;;;;28.20;97.60;;;;;;5056562;28;19908;-73
2023/01/01 01:09:33;;;;;;;;;;;28.30;97.30;;;;;;5057926;28;20677;-73
2023/01/01 01:11:59;;;;;;;;;;;28.30;98.40;;;;;;5057038;28;19997;-69
2023/01/01 01:14:26;;;;;;;;;;;28.70;97.60;;;;;;5057439;28;20372;-72
2023/01/01 01:16:53;;;;;;;;;;;29.10;96.70;;;;;;5057534;28;19909;-71
2023/01/01 01:19:22;;;;;;;;;;;28.90;96.30;;;;;;5055506;28;19912;-69
2023/01/01 01:21:50;;;;;;;;;;;28.90;96.60;;;;;;5057059;28;20713;-71
2023/01/01 01:24:17;;;;;;;;;;;29.10;96.80;;;;;;5055549;28;19908;-72
2023/01/01 01:26:45;;;;;;;;;;;29.10;96.60;;;;;;5057928;28;20108;-72
2023/01/01 01:29:12;;;;;;;;;;;29.10;96.10;;;;;;5056043;28;20351;-72
2023/01/01 01:31:38;;;;;;;;;;;29.00;96.00;;;;;;5057596;28;20087;-72
2023/01/01 01:34:06;;;;;;;;;;;29.20;96.20;;;;;;5056105;28;19908;-73
2023/01/01 01:36:32;;;;;;;;;;;29.00;95.50;;;;;;5057390;28;19916;-71
2023/01/01 01:38:59;;;;;;;;;;;28.70;96.50;;;;;;5057611;28;19919;-70
2023/01/01 01:41:26;;;;;;;;;;;28.80;96.30;;;;;;5055748;28;19908;-72
2023/01/01 01:44:03;;;;;;;;;;;28.40;94.70;;;;;;5057396;28;19954;-72
2023/01/01 01:46:35;;;;;;;;;;;28.30;95.30;;;;;;5056618;28;19916;-71
2023/01/01 01:49:13;;;;;;;;;;;28.10;95.80;;;;;;5057181;28;19915;-70
2023/01/01 01:51:40;;;;;;;;;;;28.10;95.90;;;;;;5057171;28;19992;-71
2023/01/01 01:54:10;;;;;;;;;;;28.20;95.70;;;;;;5056758;28;19912;-69
2023/01/01 01:56:39;;;;;;;;;;;27.90;96.00;;;;;;5057097;28;20353;-71
2023/01/01 01:59:06;;;;;;;;;;;27.60;95.80;;;;;;5056897;28;19915;-71
2023/01/01 02:01:33;;;;;;;;;;;27.40;95.80;;;;;;5056148;28;20033;-70
2023/01/01 02:04:01;;;;;;;;;;;27.60;96.20;;;;;;5056702;28;19915;-72
2023/01/01 02:06:28;;;;;;;;;;;27.80;95.60;;;;;;5054310;28;19917;-71
2023/01/01 02:08:56;;;;;;;;;;;27.80;95.60;;;;;;5057491;28;20575;-71
2023/01/01 02:11:23;;;;;;;;;;;27.90;95.80;;;;;;5056195;28;19915;-71
2023/01/01 02:13:50;;;;;;;;;;;27.70;95.90;;;;;;5056063;28;19931;-71
2023/01/01 02:16:38;;;;;;;;;;;27.50;96.80;;;;;;5055343;28;19935;-70
2023/01/01 02:19:15;;;;;;;;;;;27.50;97.30;;;;;;5056375;28;19912;-70
2023/01/01 02:21:50;;;;;;;;;;;27.30;97.40;;;;;;5054840;28;19909;-71
2023/01/01 02:24:32;;;;;;;;;;;27.10;97.90;;;;;;5056635;28;20273;-72
2023/01/01 02:27:17;;;;;;;;;;;27.10;97.70;;;;;;5055962;28;19912;-72
2023/01/01 02:30:04;;;;;;;;;;;27.20;98.00;;;;;;5054098;28;19912;-71
2023/01/01 02:32:36;;;;;;;;;;;27.40;97.70;;;;;;5054523;28;19944;-69
2023/01/01 02:37:58;;;;;;;;;;;27.60;97.40;;;;;;5055928;28;19962;-73
2023/01/01 02:40:26;;;;;;;;;;;27.90;97.10;;;;;;5057044;28;19920;-72
2023/01/01 02:42:53;;;;;;;;;;;28.00;96.20;;;;;;5055585;28;19916;-72
2023/01/01 02:45:20;;;;;;;;;;;27.90;95.30;;;;;;5056137;28;20074;-71
2023/01/01 02:47:47;;;;;;;;;;;28.20;95.80;;;;;;5054000;28;20288;-71
2023/01/01 02:50:14;;;;;;;;;;;28.70;94.90;;;;;;5056572;28;19954;-71
2023/01/01 02:52:46;;;;;;;;;;;29.10;94.10;;;;;;5054431;28;19960;-72
2023/01/01 02:55:35;;;;;;;;;;;29.10;94.20;;;;;;5056483;28;19909;-72
2023/01/01 03:01:11;;;;;;;;;;;29.10;93.20;;;;;;5055591;28;19916;-70
2023/01/01 03:03:40;;;;;;;;;;;29.70;92.90;;;;;;5053971;28;19908;-70
2023/01/01 03:06:39;;;;;;;;;;;30.30;92.30;;;;;;5055485;28;19916;-71
2023/01/01 03:09:11;;;;;;;;;;;30.80;90.80;;;;;;5054160;28;19908;-72
2023/01/01 03:11:43;;;;;;;;;;;31.10;90.80;;;;;;5053803;28;20011;-72
2023/01/01 03:14:22;;;;;;;;;;;31.80;91.60;;;;;;5055532;28;19908;-72
2023/01/01 03:16:57;;;;;;;;;;;32.10;91.00;;;;;;5054033;28;19970;-72
2023/01/01 03:19:29;;;;;;;;;;;31.50;91.10;;;;;;5055821;28;19938;-69
2023/01/01 03:22:06;;;;;;;;;;;30.60;92.00;;;;;;5054062;28;19970;-72
2023/01/01 03:24:34;;;;;;;;;;;30.10;92.60;;;;;;5055246;28;20246;-71
2023/01/01 03:27:07;;;;;;;;;;;29.70;93.10;;;;;;5056173;28;19970;-71
2023/01/01 03:29:35;;;;;;;;;;;29.40;93.70;;;;;;5055127;28;19908;-71
2023/01/01 03:32:03;;;;;;;;;;;29.00;93.80;;;;;;5051417;28;20007;-70
2023/01/01 03:34:32;;;;;;;;;;;29.10;94.70;;;;;;5055087;28;19925;-68
2023/01/01 03:37:00;;;;;;;;;;;29.60;94.00;;;;;;5053719;28;19912;-72
2023/01/01 03:39:46;;;;;;;;;;;30.50;93.40;;;;;;5055221;28;20445;-70
2023/01/01 03:42:22;;;;;;;;;;;31.00;91.90;;;;;;5035001;28;19913;-72
2023/01/01 03:44:52;;;;;;;;;;;31.80;91.10;;;;;;5033292;28;19970;-72
2023/01/01 03:47:18;;;;;;;;;;;32.00;90.50;;;;;;5035714;28;19909;-71
2023/01/01 03:49:45;;;;;;;;;;;31.80;90.90;;;;;;5035332;28;19939;-71
2023/01/01 03:52:19;;;;;;;;;;;31.80;90.90;;;;;;5055333;28;20012;-71
2023/01/01 03:55:09;;;;;;;;;;;31.90;91.30;;;;;;5053445;28;20373;-72
2023/01/01 03:57:35;;;;;;;;;;;32.40;90.80;;;;;;5055825;28;19973;-68
2023/01/01 04:00:08;;;;;;;;;;;31.90;90.70;;;;;;5053689;28;19908;-72
2023/01/01 04:02:54;;;;;;;;;;;32.10;90.70;;;;;;5055405;28;19940;-72
2023/01/01 04:05:22;;;;;;;;;;;32.70;90.40;;;;;;5055010;28;20615;-71
2023/01/01 04:07:49;;;;;;;;;;;32.60;89.00;;;;;;5053356;28;19999;-69
2023/01/01 04:10:16;;;;;;;;;;;32.30;90.30;;;;;;5054636;28;20415;-71
2023/01/01 04:12:45;;;;;;;;;;;33.50;87.50;;;;;;5055854;28;19931;-73
2023/01/01 04:15:12;;;;;;;;;;;33.70;86.60;;;;;;5057309;28;19977;-73
2023/01/01 04:17:39;;;;;;;;;;;34.10;85.20;;;;;;5058883;28;19913;-73
2023/01/01 04:20:06;;;;;;;;;;;34.10;85.90;;;;;;5055546;28;19923;-71
2023/01/01 04:22:33;;;;;;;;;;;34.40;85.00;;;;;;5058718;28;19908;-73
2023/01/01 04:25:00;;;;;;;;;;;34.20;85.10;;;;;;5055399;28;20430;-73
2023/01/01 04:27:27;;;;;;;;;;;34.90;83.90;;;;;;5057232;28;19909;-72
2023/01/01 04:29:53;;;;;;;;;;;34.40;82.70;;;;;;5057207;28;19909;-71
2023/01/01 04:32:21;;;;;;;;;;;34.30;83.40;;;;;;5058133;28;19909;-72
2023/01/01 04:34:47;;;;;;;;;;;33.30;84.40;;;;;;5057318;28;19931;-72
2023/01/01 04:37:14;;;;;;;;;;;33.10;85.80;;;;;;5056478;28;19947;-71
2023/01/01 04:39:41;;;;;;;;;;;32.60;87.40;;;;;;5058633;28;19909;-70
2023/01/01 04:42:08;;;;;;;;;;;32.90;86.40;;;;;;5055831;28;19916;-72
2023/01/01 04:44:35;;;;;;;;;;;34.20;83.30;;;;;;5058099;28;20420;-73
2023/01/01 04:47:02;;;;;;;;;;;34.50;82.00;;;;;;5057109;28;20008;-74
2023/01/01 04:49:28;;;;;;;;;;;33.90;83.80;;;;;;5058155;28;19915;-69
2023/01/01 04:52:04;;;;;;;;;;;33.90;84.40;;;;;;5056023;28;19912;-71
2023/01/01 04:54:31;;;;;;;;;;;33.80;83.70;;;;;;5058020;28;20391;-72
2023/01/01 04:56:58;;;;;;;;;;;33.00;85.50;;;;;;5056154;28;19955;-72
2023/01/01 04:59:24;;;;;;;;;;;33.40;84.80;;;;;;5057492;28;20552;-72
2023/01/01 05:01:51;;;;;;;;;;;34.20;83.70;;;;;;5057372;28;19995;-70
2023/01/01 05:04:18;;;;;;;;;;;34.40;84.40;;;;;;5057715;28;19974;-69
2023/01/01 05:06:46;;;;;;;;;;;35.30;80.70;;;;;;5057972;28;19916;-69
2023/01/01 05:09:12;;;;;;;;;;;35.20;80.70;;;;;;5055950;28;19912;-69
2023/01/01 05:11:39;;;;;;;;;;;35.70;79.70;;;;;;5057167;28;20042;-71
2023/01/01 05:14:06;;;;;;;;;;;36.20;80.00;;;;;;5054964;28;19947;-72
2023/01/01 05:16:35;;;;;;;;;;;36.10;78.90;;;;;;5057293;28;19927;-69
2023/01/01 05:19:01;;;;;;;;;;;36.00;78.20;;;;;;5055886;28;19908;-71
2023/01/01 05:21:32;;;;;;;;;;;35.30;79.20;;;;;;5057074;28;20262;-73
2023/01/01 05:24:00;;;;;;;;;;;34.60;80.60;;;;;;5056884;28;20736;-73
2023/01/01 05:26:29;;;;;;;;;;;34.40;81.50;;;;;;5055553;28;19915;-71
2023/01/01 05:28:56;;;;;;;;;;;34.50;82.10;;;;;;5058006;28;19999;-70
2023/01/01 05:31:25;;;;;;;;;;;34.40;80.80;;;;;;5056134;28;19963;-74
2023/01/01 05:33:52;;;;;;;;;;;33.40;82.80;;;;;;5057624;28;19912;-70
2023/01/01 05:36:29;;;;;;;;;;;32.70;84.30;;;;;;5055481;28;19920;-72
2023/01/01 05:38:56;;;;;;;;;;;32.30;84.60;;;;;;5057737;28;19915;-69
2023/01/01 05:41:23;;;;;;;;;;;31.50;86.90;;;;;;5057650;28;19968;-69
2023/01/01 05:43:50;;;;;;;;;;;31.40;87.60;;;;;;5054589;28;20506;-70
2023/01/01 05:46:18;;;;;;;;;;;31.80;86.60;;;;;;5056985;28;19909;-70
2023/01/01 05:48:44;;;;;;;;;;;31.80;87.30;;;;;;5055613;28;19919;-69
2023/01/01 05:51:12;;;;;;;;;;;32.30;84.80;;;;;;5058090;28;19999;-68
2023/01/01 05:53:39;;;;;;;;;;;31.70;86.30;;;;;;5055475;28;20362;-71
2023/01/01 05:56:06;;;;;;;;;;;31.40;87.50;;;;;;5058560;28;19960;-69
2023/01/01 05:58:33;;;;;;;;;;;31.30;87.50;;;;;;5055401;28;20334;-68
2023/01/01 06:01:06;;;;;;;;;;;30.90;88.90;;;;;;5058602;28;19951;-70
2023/01/01 06:03:32;;;;;;;;;;;30.70;89.10;;;;;;5056477;28;19988;-72
2023/01/01 06:06:02;;;;;;;;;;;30.60;89.70;;;;;;5056443;28;20345;-68
2023/01/01 06:08:29;;;;;;;;;;;30.60;89.30;;;;;;5057654;28;20409;-70
2023/01/01 06:10:59;;;;;;;;;;;30.00;90.30;;;;;;5055448;28;20063;-70
2023/01/01 06:13:26;;;;;;;;;;;29.70;90.60;;;;;;5057473;28;19913;-70
2023/01/01 06:15:54;;;;;;;;;;;29.20;90.90;;;;;;5054360;28;19921;-70
2023/01/01 06:18:20;;;;;;;;;;;29.00;91.50;;;;;;5056781;28;20274;-71
2023/01/01 06:20:47;;;;;;;;;;;28.80;91.60;;;;;;5056340;28;19908;-71
2023/01/01 06:23:13;;;;;;;;;;;28.80;91.40;;;;;;5056698;28;19916;-70
2023/01/01 06:25:40;;;;;;;;;;;28.50;92.70;;;;;;5054571;28;19908;-71
2023/01/01 06:28:07;;;;;;;;;;;28.30;92.60;;;;;;5057087;28;20580;-70
2023/01/01 06:30:33;;;;;;;;;;;28.30;92.60;;;;;;5056533;28;19908;-71
2023/01/01 06:33:00;;;;;;;;;;;28.50;92.30;;;;;;5056252;28;20003;-71
2023/01/01 06:35:27;;;;;;;;;;;28.20;93.10;;;;;;5055543;28;19921;-74
2023/01/01 06:37:54;;;;;;;;;;;28.20;92.20;;;;;;5054781;28;19908;-68
2023/01/01 06:40:21;;;;;;;;;;;28.40;92.40;;;;;;5056980;28;20289;-72
2023/01/01 06:42:48;;;;;;;;;;;28.40;92.40;;;;;;5054418;28;19912;-71
2023/01/01 06:45:14;;;;;;;;;;;28.60;92.30;;;;;;5057165;28;20381;-70
2023/01/01 06:47:41;;;;;;;;;;;28.20;92.80;;;;;;5055104;28;19908;-71
2023/01/01 06:50:08;;;;;;;;;;;28.10;92.70;;;;;;5056833;28;19908;-72
2023/01/01 06:52:34;;;;;;;;;;;28.00;92.70;;;;;;5057618;28;19908;-70
2023/01/01 06:55:01;;;;;;;;;;;28.10;93.10;;;;;;5049501;28;20245;-70
2023/01/01 06:57:27;;;;;;;;;;;28.10;93.40;;;;;;5055075;28;19909;-72
2023/01/01 06:59:54;;;;;;;;;;;28.20;93.30;;;;;;5050026;28;20325;-72
2023/01/01 07:02:21;;;;;;;;;;;28.20;93.40;;;;;;5036030;28;20431;-69
2023/01/01 07:04:47;;;;;;;;;;;28.10;94.00;;;;;;5033366;28;19913;-68
2023/01/01 07:07:14;;;;;;;;;;;27.90;94.30;;;;;;5034424;28;19920;-72
2023/01/01 07:09:41;;;;;;;;;;;27.50;95.10;;;;;;5035710;28;20360;-70
2023/01/01 07:12:07;;;;;;;;;;;27.20;96.00;;;;;;5033985;28;19909;-71
2023/01/01 07:14:34;;;;;;;;;;;27.20;96.30;;;;;;5035823;28;19980;-71
2023/01/01 07:17:00;;;;;;;;;;;26.90;96.70;;;;;;5033177;28;20389;-71
2023/01/01 07:19:27;;;;;;;;;;;26.90;96.80;;;;;;5035817;28;19913;-69
2023/01/01 07:21:54;;;;;;;;;;;26.60;97.30;;;;;;5035176;28;20344;-68
2023/01/01 07:24:21;;;;;;;;;;;26.10;98.10;;;;;;5034945;28;20031;-69
2023/01/01 07:26:48;;;;;;;;;;;25.70;99.20;;;;;;5035805;28;19909;-72
2023/01/01 07:29:14;;;;;;;;;;;25.80;99.50;;;;;;5035765;28;19913;-70
2023/01/01 07:31:42;;;;;;;;;;;25.70;99.60;;;;;;5035666;28;19954;-71
2023/01/01 07:34:16;;;;;;;;;;;25.60;99.50;;;;;;5034799;28;19921;-71
2023/01/01 07:36:42;;;;;;;;;;;25.60;99.70;;;;;;5053649;28;19920;-70
2023/01/01 07:39:09;;;;;;;;;;;25.70;99.80;;;;;;5063581;28;19915;-69
2023/01/01 07:41:36;;;;;;;;;;;25.80;99.50;;;;;;5044392;28;19913;-69
2023/01/01 07:44:02;;;;;;;;;;;26.00;99.30;;;;;;5039317;28;19924;-72
2023/01/01 07:46:29;;;;;;;;;;;26.10;99.00;;;;;;5034629;28;19912;-69
2023/01/01 07:48:56;;;;;;;;;;;26.30;98.60;;;;;;5038064;28;20232;-71
2023/01/01 07:51:22;;;;;;;;;;;26.20;98.50;;;;;;5045334;28;20384;-71
2023/01/01 07:53:49;;;;;;;;;;;26.10;98.50;;;;;;5043565;28;19916;-69
2023/01/01 07:56:16;;;;;;;;;;;25.90;98.50;;;;;;5049028;28;19924;-68
2023/01/01 07:58:43;;;;;;;;;;;25.90;99.10;;;;;;5058228;28;20383;-72
2023/01/01 08:01:16;;;;;;;;;;;25.90;99.10;;;;;;5044345;28;19978;-70
2023/01/01 08:03:42;;;;;;;;;;;25.90;98.90;;;;;;5052802;28;20709;-71
2023/01/01 08:06:12;;;;;;;;;;;25.80;99.20;;;;;;5038452;28;19909;-69
2023/01/01 08:08:39;;;;;;;;;;;25.70;99.50;;;;;;5037339;28;19909;-70
2023/01/01 08:11:06;;;;;;;;;;;25.60;99.80;;;;;;5037851;28;20361;-71
2023/01/01 08:13:33;;;;;;;;;;;25.70;99.80;;;;;;5037620;28;19944;-71
2023/01/01 08:16:00;;;;;;;;;;;25.60;99.80;;;;;;5037959;28;19923;-72
2023/01/01 08:18:27;;;;;;;;;;;25.50;99.80;;;;;;5037326;28;19916;-71
2023/01/01 08:20:54;;;;;;;;;;;25.30;99.90;;;;;;5037876;28;19909;-70
2023/01/01 08:23:20;;;;;;;;;;;25.10;99.90;;;;;;5038535;28;19951;-69
2023/01/01 08:25:47;;;;;;;;;;;25.00;99.90;;;;;;5037579;28;19975;-71
2023/01/01 08:28:13;;;;;;;;;;;24.90;99.90;;;;;;5037993;28;19916;-71
2023/01/01 08:30:40;;;;;;;;;;;24.80;99.90;;;;;;5037175;28;19936;-71
2023/01/01 08:33:07;;;;;;;;;;;24.60;99.90;;;;;;5038011;28;19916;-69
2023/01/01 08:35:35;;;;;;;;;;;24.60;99.90;;;;;;5036735;28;20028;-71
2023/01/01 08:38:02;;;;;;;;;;;24.60;99.90;;;;;;5037318;28;20303;-71
2023/01/01 08:40:28;;;;;;;;;;;24.60;99.90;;;;;;5037579;28;20006;-72
2023/01/01 08:42:55;;;;;;;;;;;24.60;99.90;;;;;;5037776;28;19951;-70
2023/01/01 08:45:21;;;;;;;;;;;24.50;99.90;;;;;;5038284;28;19916;-71
2023/01/01 08:47:48;;;;;;;;;;;24.50;99.90;;;;;;5034124;28;20269;-70
2023/01/01 08:50:15;;;;;;;;;;;24.40;99.90;;;;;;5034630;28;19919;-71
2023/01/01 08:52:41;;;;;;;;;;;24.40;99.90;;;;;;5036783;28;20015;-70
2023/01/01 08:55:08;;;;;;;;;;;24.30;99.90;;;;;;5047711;28;20003;-71
2023/01/01 08:57:35;;;;;;;;;;;24.30;99.90;;;;;;5056417;28;20751;-69
2023/01/01 09:00:01;;;;;;;;;;;24.20;99.90;;;;;;5051994;28;19997;-70
2023/01/01 09:02:28;;;;;;;;;;;24.10;99.90;;;;;;5054836;28;19908;-70
2023/01/01 09:04:55;;;;;;;;;;;24.10;99.90;;;;;;5045877;28;19994;-71
2023/01/01 09:07:21;;;;;;;;;;;24.00;99.90;;;;;;5035595;28;20263;-71
2023/01/01 09:09:48;;;;;;;;;;;23.90;99.90;;;;;;5034541;28;19913;-71
2023/01/01 09:12:16;;;;;;;;;;;23.90;99.90;;;;;;5034439;28;19991;-71
2023/01/01 09:14:42;;;;;;;;;;;24.00;99.90;;;;;;5034280;28;19916;-71
2023/01/01 09:17:09;;;;;;;;;;;23.90;99.90;;;;;;5034145;28;20094;-73
2023/01/01 09:19:36;;;;;;;;;;;23.90;99.90;;;;;;5038005;28;19908;-69
2023/01/01 09:22:03;;;;;;;;;;;23.80;99.90;;;;;;5035654;28;19956;-70
2023/01/01 09:24:29;;;;;;;;;;;23.70;99.90;;;;;;5037975;28;19935;-71
2023/01/01 09:26:56;;;;;;;;;;;23.70;99.90;;;;;;5036588;28;19967;-70
2023/01/01 09:29:23;;;;;;;;;;;23.70;99.90;;;;;;5035325;28;20558;-70
2023/01/01 09:31:49;;;;;;;;;;;23.60;99.90;;;;;;5036822;28;19909;-70
2023/01/01 09:34:16;;;;;;;;;;;23.60;99.90;;;;;;5038780;28;20395;-70
2023/01/01 09:36:43;;;;;;;;;;;23.60;99.90;;;;;;5057100;28;20394;-69
2023/01/01 09:39:11;;;;;;;;;;;23.60;99.90;;;;;;5052406;28;19916;-70
2023/01/01 09:41:38;;;;;;;;;;;23.60;99.90;;;;;;5034341;28;20640;-71
2023/01/01 09:44:20;;;;;;;;;;;23.60;99.90;;;;;;5036125;28;19920;-70
2023/01/01 09:46:48;;;;;;;;;;;23.60;99.90;;;;;;5036574;28;20380;-71
2023/01/01 09:49:28;;;;;;;;;;;23.60;99.90;;;;;;5036051;28;20392;-71
2023/01/01 09:51:59;;;;;;;;;;;23.60;99.90;;;;;;5034139;28;20294;-71
2023/01/01 09:54:34;;;;;;;;;;;23.60;99.90;;;;;;5036512;28;19909;-70
2023/01/01 09:57:02;;;;;;;;;;;23.60;99.90;;;;;;5034552;28;20327;-70
2023/01/01 09:59:29;;;;;;;;;;;23.50;99.90;;;;;;5036323;28;19962;-71
2023/01/01 10:01:56;;;;;;;;;;;23.40;99.90;;;;;;5034373;28;19909;-70
2023/01/01 10:04:48;;;;;;;;;;;23.50;99.90;;;;;;5036320;28;19916;-72
2023/01/01 10:07:14;;;;;;;;;;;23.40;99.90;;;;;;5035892;28;19995;-70
2023/01/01 10:09:45;;;;;;;;;;;23.40;99.90;;;;;;5035725;28;19948;-71
2023/01/01 10:12:12;;;;;;;;;;;23.50;99.90;;;;;;5042137;28;19913;-70
2023/01/01 10:14:41;;;;;;;;;;;23.50;99.90;;;;;;5051629;28;19909;-72
2023/01/01 10:17:21;;;;;;;;;;;23.60;99.90;;;;;;5052615;28;20721;-71
2023/01/01 10:19:52;;;;;;;;;;;23.40;99.90;;;;;;5053537;28;19969;-70
2023/01/01 10:22:32;;;;;;;;;;;23.50;99.90;;;;;;5055584;28;19912;-71
2023/01/01 10:25:06;;;;;;;;;;;23.40;99.90;;;;;;5053013;28;19909;-70
2023/01/01 10:27:38;;;;;;;;;;;23.40;99.90;;;;;;5055198;28;19908;-72
2023/01/01 10:30:25;;;;;;;;;;;23.40;99.90;;;;;;5055149;28;19940;-72
2023/01/01 10:32:53;;;;;;;;;;;23.30;99.90;;;;;;5054568;28;20000;-70
2023/01/01 10:35:29;;;;;;;;;;;23.20;99.90;;;;;;5055071;28;19931;-70
2023/01/01 10:37:58;;;;;;;;;;;23.20;99.90;;;;;;5054946;28;19992;-70
2023/01/01 10:40:27;;;;;;;;;;;23.30;99.90;;;;;;5055796;28;20344;-70
2023/01/01 10:42:58;;;;;;;;;;;23.20;99.90;;;;;;5054913;28;19909;-70
2023/01/01 10:45:36;;;;;;;;;;;23.20;99.90;;;;;;5055655;28;19912;-70
2023/01/01 10:48:10;;;;;;;;;;;23.20;99.90;;;;;;5054276;28;19939;-71
2023/01/01 10:50:41;;;;;;;;;;;23.10;99.90;;;;;;5054652;28;19961;-71
2023/01/01 10:53:18;;;;;;;;;;;23.10;99.90;;;;;;5054584;28;19908;-71
2023/01/01 10:55:49;;;;;;;;;;;23.10;99.90;;;;;;5055433;28;19923;-71
2023/01/01 10:58:44;;;;;;;;;;;23.10;99.90;;;;;;5056817;28;20432;-70
2023/01/01 11:01:19;;;;;;;;;;;23.10;99.90;;;;;;5054415;28;19908;-70
2023/01/01 11:03:52;;;;;;;;;;;23.20;99.90;;;;;;5056045;28;19913;-71
2023/01/01 11:06:19;;;;;;;;;;;23.10;99.90;;;;;;5056158;28;19919;-71
2023/01/01 11:08:47;;;;;;;;;;;23.10;99.90;;;;;;5055865;28;19908;-71
2023/01/01 11:11:20;;;;;;;;;;;23.10;99.90;;;;;;5055137;28;19951;-71
2023/01/01 11:13:51;;;;;;;;;;;23.10;99.90;;;;;;5056346;28;19934;-72
2023/01/01 11:16:18;;;;;;;;;;;23.10;99.90;;;;;;5055556;28;19977;-73
2023/01/01 11:18:45;;;;;;;;;;;23.10;99.90;;;;;;5055695;28;19909;-71
2023/01/01 11:21:18;;;;;;;;;;;23.10;99.90;;;;;;5054233;28;20323;-70
2023/01/01 11:23:45;;;;;;;;;;;23.10;99.90;;;;;;5060057;28;19912;-71
2023/01/01 11:26:11;;;;;;;;;;;23.10;99.90;;;;;;5058488;28;19909;-73
2023/01/01 11:28:39;;;;;;;;;;;23.10;99.90;;;;;;5057997;28;19909;-73
2023/01/01 11:31:19;;;;;;;;;;;23.10;99.90;;;;;;5058571;28;20463;-72
2023/01/01 11:33:48;;;;;;;;;;;23.00;99.90;;;;;;5059664;28;20292;-71
2023/01/01 11:36:28;;;;;;;;;;;23.00;99.90;;;;;;5058743;28;20287;-70
2023/01/01 11:39:04;;;;;;;;;;;23.00;99.90;;;;;;5059090;28;20653;-70
2023/01/01 11:41:40;;;;;;;;;;;23.10;99.90;;;;;;5058619;28;19908;-70
2023/01/01 11:44:07;;;;;;;;;;;23.10;99.90;;;;;;5057935;28;20018;-72
2023/01/01 11:46:34;;;;;;;;;;;23.10;99.90;;;;;;5059102;28;20724;-72
2023/01/01 11:49:01;;;;;;;;;;;23.00;99.90;;;;;;5057662;28;19908;-72
2023/01/01 11:51:29;;;;;;;;;;;23.00;99.90;;;;;;5059162;28;19909;-71
2023/01/01 11:54:10;;;;;;;;;;;23.00;99.90;;;;;;5059709;28;19942;-72
2023/01/01 11:56:37;;;;;;;;;;;23.10;99.90;;;;;;5058589;28;19917;-71
2023/01/01 11:59:11;;;;;;;;;;;23.10;99.90;;;;;;5057866;28;20004;-68
2023/01/01 12:01:46;;;;;;;;;;;23.00;99.90;;;;;;5058599;28;19916;-72
2023/01/01 12:04:17;;;;;;;;;;;23.00;99.90;;;;;;5057353;28;19908;-72
2023/01/01 12:06:47;;;;;;;;;;;23.00;99.90;;;;;;5058134;28;20606;-70
2023/01/01 12:09:37;;;;;;;;;;;23.00;99.90;;;;;;5058103;28;20106;-69
2023/01/01 12:12:04;;;;;;;;;;;23.00;99.90;;;;;;5057627;28;19909;-71
2023/01/01 12:14:36;;;;;;;;;;;23.00;99.90;;;;;;5059092;28;19909;-70
2023/01/01 12:17:06;;;;;;;;;;;22.90;99.90;;;;;;5058288;28;20365;-70
2023/01/01 12:19:33;;;;;;;;;;;23.00;99.90;;;;;;5058673;28;19948;-70
2023/01/01 12:22:00;;;;;;;;;;;22.90;99.90;;;;;;5059384;28;19908;-72
2023/01/01 12:24:33;;;;;;;;;;;23.00;99.90;;;;;;5058724;28;19915;-70
2023/01/01 12:27:09;;;;;;;;;;;23.00;99.90;;;;;;5057635;28;20030;-71
2023/01/01 12:29:54;;;;;;;;;;;23.00;99.90;;;;;;5058040;28;19912;-70
2023/01/01 12:32:20;;;;;;;;;;;23.00;99.90;;;;;;5056856;28;19966;-69
2023/01/01 12:34:55;;;;;;;;;;;23.00;99.90;;;;;;5057883;28;20365;-69
2023/01/01 12:37:41;;;;;;;;;;;23.00;99.90;;;;;;5058096;28;19926;-70
2023/01/01 12:40:25;;;;;;;;;;;22.90;99.90;;;;;;5058748;28;19932;-69
2023/01/01 12:42:52;;;;;;;;;;;22.90;99.90;;;;;;5058802;28;19909;-71
2023/01/01 12:45:28;;;;;;;;;;;22.90;99.90;;;;;;5057674;28;19915;-70
2023/01/01 12:48:03;;;;;;;;;;;22.80;99.90;;;;;;5057834;28;19989;-69
2023/01/01 12:50:29;;;;;;;;;;;22.80;99.90;;;;;;5057638;28;19913;-69
2023/01/01 12:52:59;;;;;;;;;;;22.70;99.90;;;;;;5057752;28;20206;-71
2023/01/01 12:55:32;;;;;;;;;;;22.70;99.90;;;;;;5056082;28;19921;-69
2023/01/01 12:58:04;;;;;;;;;;;22.70;99.90;;;;;;5057274;28;19953;-68
2023/01/01 13:00:31;;;;;;;;;;;22.70;99.90;;;;;;5058617;28;19983;-71
2023/01/01 13:03:06;;;;;;;;;;;22.60;99.90;;;;;;5057064;28;19943;-69
2023/01/01 13:05:39;;;;;;;;;;;22.60;99.90;;;;;;5057891;28;19908;-69
2023/01/01 13:08:06;;;;;;;;;;;22.60;99.90;;;;;;5058161;28;19912;-71
2023/01/01 13:10:38;;;;;;;;;;;22.60;99.90;;;;;;5057380;28;19909;-68
2023/01/01 13:13:05;;;;;;;;;;;22.50;99.90;;;;;;5058321;28;20381;-70
2023/01/01 13:15:38;;;;;;;;;;;22.50;99.90;;;;;;5056574;28;20523;-69
2023/01/01 13:18:06;;;;;;;;;;;22.50;99.90;;;;;;5057397;28;19960;-70
2023/01/01 13:20:35;;;;;;;;;;;22.50;99.90;;;;;;5056921;28;19915;-70
2023/01/01 13:23:03;;;;;;;;;;;22.50;99.90;;;;;;5057183;28;19995;-73
2023/01/01 13:25:29;;;;;;;;;;;22.50;99.90;;;;;;5055755;28;20378;-71
2023/01/01 13:27:56;;;;;;;;;;;22.50;99.90;;;;;;5057378;28;20002;-71
2023/01/01 13:30:35;;;;;;;;;;;22.50;99.90;;;;;;5056545;28;19916;-73
2023/01/01 13:33:16;;;;;;;;;;;22.50;99.90;;;;;;5056846;28;19996;-72
2023/01/01 13:35:43;;;;;;;;;;;22.50;99.90;;;;;;5056967;28;19921;-72
2023/01/01 13:38:42;;;;;;;;;;;22.50;99.90;;;;;;5057846;28;19908;-72
2023/01/01 13:41:29;;;;;;;;;;;22.60;99.90;;;;;;5056406;28;20440;-70
2023/01/01 13:43:58;;;;;;;;;;;22.50;99.90;;;;;;5056327;28;19947;-72
2023/01/01 13:46:37;;;;;;;;;;;22.60;99.90;;;;;;5055525;28;19995;-73
2023/01/01 13:49:13;;;;;;;;;;;22.60;99.90;;;;;;5056291;28;19912;-71
2023/01/01 13:51:58;;;;;;;;;;;22.60;99.90;;;;;;5056391;28;19915;-71
2023/01/01 13:54:34;;;;;;;;;;;22.60;99.90;;;;;;5055480;28;19915;-72
2023/01/01 13:57:09;;;;;;;;;;;22.60;99.90;;;;;;5056796;28;20341;-71
2023/01/01 13:59:56;;;;;;;;;;;22.60;99.90;;;;;;5055175;28;19908;-70
2023/01/01 14:02:28;;;;;;;;;;;22.70;99.90;;;;;;5053534;28;19917;-70
2023/01/01 14:04:55;;;;;;;;;;;22.80;99.90;;;;;;5054480;28;19931;-71
2023/01/01 14:07:28;;;;;;;;;;;22.80;99.90;;;;;;5055170;28;19908;-72
2023/01/01 14:10:07;;;;;;;;;;;22.80;99.90;;;;;;5055899;28;19909;-72
2023/01/01 14:12:37;;;;;;;;;;;22.70;99.90;;;;;;5055224;28;19909;-71
2023/01/01 14:15:13;;;;;;;;;;;22.80;99.90;;;;;;5056245;28;20400;-71
2023/01/01 14:17:41;;;;;;;;;;;22.70;99.90;;;;;;5054470;28;19908;-72
2023/01/01 14:20:08;;;;;;;;;;;22.70;99.90;;;;;;5055845;28;20625;-72
2023/01/01 14:22:35;;;;;;;;;;;22.70;99.90;;;;;;5053863;28;20369;-69
2023/01/01 14:25:02;;;;;;;;;;;22.70;99.90;;;;;;5054703;28;19915;-70
2023/01/01 14:27:29;;;;;;;;;;;22.70;99.90;;;;;;5054491;28;19909;-70
2023/01/01 14:29:56;;;;;;;;;;;22.70;99.90;;;;;;5055531;28;19930;-72
2023/01/01 14:32:24;;;;;;;;;;;22.70;99.90;;;;;;5056343;28;19999;-72
2023/01/01 14:35:00;;;;;;;;;;;22.80;99.90;;;;;;5056088;28;20035;-72
2023/01/01 14:37:27;;;;;;;;;;;22.80;99.90;;;;;;5055098;28;19955;-71